createdAt,value
2018-09-11T00:02:14.873Z,15.40
2018-09-11T00:04:43.030Z,15.30
2018-09-11T00:07:11.202Z,15.30
2018-09-11T00:09:39.346Z,15.30
2018-09-11T00:12:07.471Z,15.20
2018-09-11T00:14:35.594Z,15.20
2018-09-11T00:17:03.894Z,15.20
2018-09-11T00:19:32.023Z,15.20
2018-09-11T00:22:00.230Z,15.10
2018-09-11T00:24:28.365Z,15.20
2018-09-11T00:26:56.500Z,15.20
2018-09-11T00:29:24.617Z,15.10
2018-09-11T00:31:52.793Z,15.10
2018-09-11T00:34:20.922Z,15.10
2018-09-11T00:36:49.115Z,15.20
2018-09-11T00:39:17.279Z,15.10
2018-09-11T00:41:45.462Z,15.10
2018-09-11T00:44:13.593Z,15.10
2018-09-11T00:46:41.767Z,15.10
2018-09-11T00:49:09.965Z,15.10
2018-09-11T00:51:38.103Z,15.00
2018-09-11T00:54:06.310Z,14.80
2018-09-11T00:56:34.510Z,14.80
2018-09-11T00:59:02.647Z,12.20
2018-09-11T01:01:30.801Z,14.80
2018-09-11T01:03:59.034Z,14.80
2018-09-11T01:06:27.157Z,14.80
2018-09-11T01:08:55.298Z,14.80
2018-09-11T01:11:23.461Z,14.70
2018-09-11T01:13:51.627Z,14.70
2018-09-11T01:16:19.737Z,14.70
2018-09-11T01:18:47.897Z,14.70
2018-09-11T01:21:16.129Z,14.50
2018-09-11T01:23:44.861Z,14.50
2018-09-11T01:26:13.040Z,14.50
2018-09-11T01:28:41.185Z,14.50
2018-09-11T01:31:09.341Z,14.40
2018-09-11T01:33:37.470Z,14.20
2018-09-11T01:36:05.667Z,14.10
2018-09-11T01:41:01.806Z,14.00
2018-09-11T01:43:30.005Z,13.90
2018-09-11T01:45:58.154Z,13.90
2018-09-11T01:48:26.350Z,14.00
2018-09-11T01:50:54.494Z,14.00
2018-09-11T01:53:23.102Z,14.00
2018-09-11T01:55:52.157Z,14.00
2018-09-11T02:00:48.243Z,14.00
2018-09-11T02:03:16.473Z,14.10
2018-09-11T02:05:44.630Z,14.00
2018-09-11T02:08:12.770Z,14.00
2018-09-11T02:10:40.924Z,14.00
2018-09-11T02:13:09.071Z,14.00
2018-09-11T02:15:37.211Z,13.90
2018-09-11T02:20:33.326Z,13.80
2018-09-11T02:23:01.469Z,13.70
2018-09-11T02:25:29.603Z,13.70
2018-09-11T02:27:58.245Z,13.70
2018-09-11T02:30:26.594Z,13.70
2018-09-11T02:32:54.773Z,13.70
2018-09-11T02:37:50.973Z,13.70
2018-09-11T02:40:19.176Z,13.60
2018-09-11T02:42:47.329Z,13.50
2018-09-11T02:45:15.470Z,13.30
2018-09-11T02:47:43.687Z,13.30
2018-09-11T02:50:11.890Z,13.30
2018-09-11T02:52:40.022Z,13.30
2018-09-11T02:55:08.530Z,13.10
2018-09-11T02:57:36.737Z,13.00
2018-09-11T03:00:04.888Z,12.80
2018-09-11T03:02:33.054Z,12.80
2018-09-11T03:05:01.185Z,12.80
2018-09-11T03:07:29.405Z,12.90
2018-09-11T03:12:25.695Z,12.90
2018-09-11T03:14:53.858Z,12.90
2018-09-11T03:17:22.045Z,12.90
2018-09-11T03:19:50.243Z,13.00
2018-09-11T03:22:18.406Z,13.10
2018-09-11T03:24:46.580Z,13.20
2018-09-11T03:27:14.721Z,13.20
2018-09-11T03:29:42.876Z,13.30
2018-09-11T03:32:11.074Z,13.40
2018-09-11T03:34:39.315Z,13.40
2018-09-11T03:37:07.480Z,13.50
2018-09-11T03:39:35.630Z,13.50
2018-09-11T03:42:03.837Z,13.50
2018-09-11T03:44:31.997Z,13.40
2018-09-11T03:47:00.154Z,13.40
2018-09-11T03:49:28.365Z,13.30
2018-09-11T03:51:56.558Z,13.30
2018-09-11T03:56:52.657Z,13.30
2018-09-11T03:59:20.860Z,13.30
2018-09-11T04:01:49.014Z,13.20
2018-09-11T04:04:17.251Z,13.20
2018-09-11T04:06:45.458Z,13.20
2018-09-11T04:09:13.892Z,13.20
2018-09-11T04:11:42.723Z,13.20
2018-09-11T04:14:10.978Z,13.20
2018-09-11T04:16:39.186Z,13.30
2018-09-11T04:19:07.354Z,13.40
2018-09-11T04:21:35.608Z,13.50
2018-09-11T04:24:03.773Z,13.60
2018-09-11T04:26:31.958Z,13.50
2018-09-11T04:29:00.145Z,13.40
2018-09-11T04:31:28.443Z,13.30
2018-09-11T04:33:56.787Z,13.30
2018-09-11T04:36:25.123Z,13.40
2018-09-11T04:38:53.181Z,13.40
2018-09-11T04:41:21.389Z,13.50
2018-09-11T04:43:49.623Z,13.50
2018-09-11T04:46:17.791Z,13.50
2018-09-11T04:48:46.485Z,13.40
2018-09-11T04:51:14.998Z,13.30
2018-09-11T04:53:43.125Z,13.30
2018-09-11T04:56:11.287Z,13.30
2018-09-11T04:58:39.406Z,13.30
2018-09-11T05:01:07.546Z,13.20
2018-09-11T05:03:35.846Z,13.20
2018-09-11T05:06:04.082Z,13.10
2018-09-11T05:08:32.444Z,13.10
2018-09-11T05:11:00.572Z,13.10
2018-09-11T05:13:28.705Z,13.00
2018-09-11T05:18:24.920Z,13.00
2018-09-11T05:20:53.153Z,13.00
2018-09-11T05:23:21.332Z,13.00
2018-09-11T05:25:49.566Z,13.00
2018-09-11T05:28:17.703Z,13.10
2018-09-11T05:30:45.841Z,13.10
2018-09-11T05:33:14.024Z,13.10
2018-09-11T05:35:42.174Z,13.10
2018-09-11T05:38:10.431Z,13.20
2018-09-11T05:40:38.716Z,13.20
2018-09-11T05:43:06.974Z,13.30
2018-09-11T05:45:35.206Z,13.30
2018-09-11T05:48:03.503Z,13.40
2018-09-11T05:50:32.292Z,13.40
2018-09-11T05:53:00.432Z,13.50
2018-09-11T05:55:29.402Z,13.50
2018-09-11T05:57:57.553Z,13.60
2018-09-11T06:00:25.717Z,13.60
2018-09-11T06:02:53.950Z,13.60
2018-09-11T06:07:50.171Z,13.70
2018-09-11T06:10:18.358Z,13.80
2018-09-11T06:12:46.533Z,13.80
2018-09-11T06:15:14.680Z,13.90
2018-09-11T06:22:38.706Z,14.00
2018-09-11T06:25:06.867Z,14.10
2018-09-11T06:27:35.018Z,14.10
2018-09-11T06:30:03.500Z,14.20
2018-09-11T06:32:31.669Z,14.30
2018-09-11T06:34:59.954Z,14.30
2018-09-11T06:37:28.148Z,14.50
2018-09-11T06:39:56.326Z,14.60
2018-09-11T06:42:24.528Z,14.60
2018-09-11T06:44:52.687Z,14.60
2018-09-11T06:47:20.817Z,14.80
2018-09-11T06:49:49.106Z,14.90
2018-09-11T06:52:17.278Z,15.00
2018-09-11T06:54:45.505Z,15.00
2018-09-11T06:57:13.597Z,15.10
2018-09-11T06:59:41.765Z,15.30
2018-09-11T07:02:09.935Z,15.40
2018-09-11T07:04:38.074Z,15.50
2018-09-11T07:07:06.221Z,15.40
2018-09-11T07:09:34.358Z,15.60
2018-09-11T07:12:02.493Z,15.70
2018-09-11T07:14:30.648Z,15.80
2018-09-11T07:16:58.778Z,15.90
2018-09-11T07:19:26.986Z,16.00
2018-09-11T07:21:55.123Z,16.20
2018-09-11T07:24:23.434Z,16.20
2018-09-11T07:26:51.573Z,16.30
2018-09-11T07:29:19.724Z,16.40
2018-09-11T07:31:47.865Z,16.50
2018-09-11T07:34:16.054Z,16.70
2018-09-11T07:36:44.197Z,16.80
2018-09-11T07:39:12.379Z,17.00
2018-09-11T07:41:40.535Z,16.90
2018-09-11T07:44:08.709Z,17.10
2018-09-11T07:46:36.857Z,17.20
2018-09-11T07:49:05.009Z,17.30
2018-09-11T07:51:33.198Z,17.40
2018-09-11T07:54:01.355Z,17.60
2018-09-11T07:56:29.558Z,17.60
2018-09-11T07:58:57.711Z,17.70
2018-09-11T08:01:25.857Z,17.80
2018-09-11T08:03:54.011Z,18.00
2018-09-11T08:06:22.190Z,18.10
2018-09-11T08:08:50.357Z,18.20
2018-09-11T08:11:18.528Z,18.30
2018-09-11T08:13:46.674Z,18.30
2018-09-11T08:16:14.856Z,18.50
2018-09-11T08:18:43.021Z,18.70
2018-09-11T08:21:11.178Z,18.70
2018-09-11T08:23:39.343Z,18.80
2018-09-11T08:26:07.823Z,18.90
2018-09-11T08:28:35.989Z,19.00
2018-09-11T08:31:04.157Z,19.10
2018-09-11T08:33:32.331Z,19.30
2018-09-11T08:36:00.509Z,19.30
2018-09-11T08:38:28.633Z,19.40
2018-09-11T08:40:56.788Z,19.60
2018-09-11T08:43:24.917Z,19.70
2018-09-11T08:45:53.143Z,19.80
2018-09-11T08:48:21.291Z,19.90
2018-09-11T08:50:49.412Z,20.00
2018-09-11T08:53:17.734Z,20.00
2018-09-11T08:55:45.970Z,20.10
2018-09-11T08:58:14.123Z,20.20
2018-09-11T09:00:42.259Z,20.20
2018-09-11T09:03:10.401Z,20.30
2018-09-11T09:05:38.547Z,20.30
2018-09-11T09:08:06.693Z,20.40
2018-09-11T09:10:34.850Z,20.50
2018-09-11T09:13:03.002Z,20.60
2018-09-11T09:15:31.159Z,20.70
2018-09-11T09:17:59.288Z,20.80
2018-09-11T09:20:27.424Z,21.00
2018-09-11T09:22:55.574Z,21.20
2018-09-11T09:25:23.747Z,21.30
2018-09-11T09:27:51.931Z,21.40
2018-09-11T09:30:20.084Z,21.40
2018-09-11T09:32:48.289Z,21.50
2018-09-11T09:35:16.522Z,21.60
2018-09-11T09:37:44.737Z,21.70
2018-09-11T09:40:13.297Z,21.90
2018-09-11T09:42:41.506Z,22.00
2018-09-11T09:45:09.877Z,22.30
2018-09-11T09:47:38.114Z,22.40
2018-09-11T09:50:06.308Z,22.60
2018-09-11T09:52:34.492Z,22.70
2018-09-11T09:55:02.659Z,22.70
2018-09-11T09:57:30.844Z,22.80
2018-09-11T09:59:59.039Z,22.90
2018-09-11T10:02:27.219Z,22.90
2018-09-11T10:04:55.540Z,22.90
2018-09-11T10:07:24.058Z,22.90
2018-09-11T10:09:52.950Z,22.90
2018-09-11T10:12:21.073Z,23.00
2018-09-11T10:14:49.321Z,23.00
2018-09-11T10:17:17.473Z,23.10
2018-09-11T10:19:45.644Z,23.20
2018-09-11T10:22:13.834Z,23.20
2018-09-11T10:24:42.009Z,23.20
2018-09-11T10:27:10.470Z,23.20
2018-09-11T10:29:38.618Z,23.20
2018-09-11T10:32:06.762Z,23.10
2018-09-11T10:34:34.905Z,23.00
2018-09-11T10:37:03.054Z,23.00
2018-09-11T10:39:31.310Z,23.10
2018-09-11T10:41:59.397Z,23.20
2018-09-11T10:44:27.531Z,23.40
2018-09-11T10:46:55.677Z,23.40
2018-09-11T10:49:23.818Z,23.40
2018-09-11T10:51:52.019Z,23.60
2018-09-11T10:54:20.171Z,23.70
2018-09-11T10:56:48.306Z,23.70
2018-09-11T10:59:16.426Z,23.90
2018-09-11T11:01:44.569Z,24.00
2018-09-11T11:04:12.703Z,24.10
2018-09-11T11:06:40.914Z,24.20
2018-09-11T11:09:10.257Z,24.40
2018-09-11T11:11:38.613Z,24.40
2018-09-11T11:14:07.090Z,24.40
2018-09-11T11:16:35.254Z,24.30
2018-09-11T11:19:03.476Z,24.40
2018-09-11T11:21:31.624Z,24.50
2018-09-11T11:23:59.786Z,24.60
2018-09-11T11:26:27.936Z,24.80
2018-09-11T11:28:56.265Z,24.90
2018-09-11T11:31:24.421Z,24.90
2018-09-11T11:33:52.822Z,25.00
2018-09-11T11:36:21.140Z,24.90
2018-09-11T11:38:49.273Z,25.00
2018-09-11T11:41:17.871Z,24.90
2018-09-11T11:43:46.034Z,24.90
2018-09-11T11:46:14.221Z,24.80
2018-09-11T11:48:42.369Z,24.80
2018-09-11T11:51:10.562Z,24.70
2018-09-11T11:53:38.760Z,24.70
2018-09-11T11:56:07.073Z,24.60
2018-09-11T11:58:35.230Z,24.60
2018-09-11T12:01:03.382Z,24.60
2018-09-11T12:03:31.578Z,24.60
2018-09-11T12:06:00.125Z,24.70
2018-09-11T12:08:28.336Z,24.70
2018-09-11T12:10:56.509Z,24.80
2018-09-11T12:13:24.698Z,25.00
2018-09-11T12:15:52.874Z,25.10
2018-09-11T12:18:21.049Z,25.10
2018-09-11T12:20:49.214Z,25.20
2018-09-11T12:23:17.426Z,25.30
2018-09-11T12:25:45.595Z,25.40
2018-09-11T12:28:13.827Z,25.50
2018-09-11T12:30:41.995Z,25.60
2018-09-11T12:33:10.129Z,25.60
2018-09-11T12:35:38.601Z,25.70
2018-09-11T12:38:06.767Z,25.80
2018-09-11T12:40:34.900Z,25.90
2018-09-11T12:43:03.043Z,26.00
2018-09-11T12:45:31.189Z,26.00
2018-09-11T12:47:59.700Z,26.00
2018-09-11T12:50:27.499Z,26.10
2018-09-11T12:52:55.648Z,26.10
2018-09-11T12:55:23.824Z,26.10
2018-09-11T12:57:51.974Z,26.20
2018-09-11T13:00:20.114Z,26.30
2018-09-11T13:02:48.272Z,26.30
2018-09-11T13:05:16.406Z,26.40
2018-09-11T13:07:44.575Z,26.50
2018-09-11T13:10:12.729Z,26.40
2018-09-11T13:12:40.898Z,26.40
2018-09-11T13:15:09.086Z,26.50
2018-09-11T13:17:37.216Z,26.50
2018-09-11T13:20:05.356Z,26.50
2018-09-11T13:22:33.526Z,26.30
2018-09-11T13:25:01.701Z,26.40
2018-09-11T13:27:29.869Z,26.40
2018-09-11T13:29:58.004Z,26.40
2018-09-11T13:32:26.149Z,26.40
2018-09-11T13:34:54.291Z,26.50
2018-09-11T13:37:22.434Z,26.20
2018-09-11T13:39:50.569Z,26.10
2018-09-11T13:42:18.718Z,26.10
2018-09-11T13:44:46.863Z,26.10
2018-09-11T13:47:15.118Z,26.10
2018-09-11T13:49:43.141Z,26.20
2018-09-11T13:52:11.284Z,26.10
2018-09-11T13:54:39.413Z,26.20
2018-09-11T13:57:07.570Z,26.20
2018-09-11T13:59:35.741Z,26.20
2018-09-11T14:02:03.933Z,26.10
2018-09-11T14:04:32.062Z,26.10
2018-09-11T14:07:00.267Z,26.10
2018-09-11T14:09:28.483Z,26.10
2018-09-11T14:11:56.626Z,26.10
2018-09-11T14:14:24.791Z,26.10
2018-09-11T14:16:52.954Z,26.20
2018-09-11T14:19:21.197Z,26.10
2018-09-11T14:21:49.385Z,26.20
2018-09-11T14:24:17.551Z,26.10
2018-09-11T14:26:45.748Z,26.10
2018-09-11T14:29:13.831Z,26.00
2018-09-11T14:31:41.958Z,26.10
2018-09-11T14:34:10.113Z,26.10
2018-09-11T14:36:38.353Z,26.10
2018-09-11T14:41:35.229Z,26.10
2018-09-11T14:44:03.391Z,26.00
2018-09-11T14:46:31.565Z,26.00
2018-09-11T14:48:59.755Z,26.00
2018-09-11T14:51:27.912Z,26.00
2018-09-11T14:53:56.085Z,26.00
2018-09-11T14:56:24.217Z,26.00
2018-09-11T14:58:52.368Z,25.90
2018-09-11T15:01:20.598Z,25.90
2018-09-11T15:03:48.758Z,26.00
2018-09-11T15:06:16.964Z,25.90
2018-09-11T15:08:45.199Z,25.90
2018-09-11T15:11:13.388Z,25.90
2018-09-11T15:13:41.540Z,25.90
2018-09-11T15:16:09.674Z,25.90
2018-09-11T15:18:37.861Z,25.90
2018-09-11T15:21:06.007Z,25.80
2018-09-11T15:23:35.257Z,25.70
2018-09-11T15:26:03.439Z,25.80
2018-09-11T15:28:31.590Z,25.70
2018-09-11T15:30:59.733Z,25.70
2018-09-11T15:33:27.945Z,25.70
2018-09-11T15:35:56.120Z,25.70
2018-09-11T15:38:24.484Z,25.70
2018-09-11T15:40:53.673Z,25.60
2018-09-11T15:43:21.810Z,25.60
2018-09-11T15:48:17.909Z,25.50
2018-09-11T15:50:46.079Z,25.50
2018-09-11T15:53:14.343Z,25.50
2018-09-11T15:55:42.598Z,25.50
2018-09-11T15:58:10.754Z,25.40
2018-09-11T16:00:38.938Z,25.40
2018-09-11T16:03:07.139Z,25.30
2018-09-11T16:05:35.449Z,25.30
2018-09-11T16:08:03.973Z,25.30
2018-09-11T16:10:32.172Z,25.20
2018-09-11T16:13:00.302Z,25.20
2018-09-11T16:15:28.466Z,25.10
2018-09-11T16:17:56.631Z,25.20
2018-09-11T16:20:24.793Z,25.10
2018-09-11T16:22:53.035Z,25.00
2018-09-11T16:25:21.209Z,25.00
2018-09-11T16:27:49.389Z,25.00
2018-09-11T16:30:18.314Z,24.90
2018-09-11T16:32:46.531Z,24.90
2018-09-11T16:35:14.726Z,24.90
2018-09-11T16:37:42.906Z,24.90
2018-09-11T16:40:11.292Z,24.80
2018-09-11T16:42:39.334Z,24.70
2018-09-11T16:45:07.879Z,24.60
2018-09-11T16:47:36.229Z,24.50
2018-09-11T16:50:04.401Z,24.50
2018-09-11T16:52:32.566Z,24.40
2018-09-11T16:55:00.917Z,24.30
2018-09-11T16:57:29.149Z,24.20
2018-09-11T16:59:57.526Z,24.20
2018-09-11T17:02:25.762Z,24.00
2018-09-11T17:04:53.874Z,24.00
2018-09-11T17:07:22.695Z,23.90
2018-09-11T17:09:50.918Z,23.80
2018-09-11T17:12:19.102Z,23.70
2018-09-11T17:14:47.283Z,23.60
2018-09-11T17:17:15.556Z,23.50
2018-09-11T17:19:43.715Z,23.40
2018-09-11T17:22:11.924Z,23.30
2018-09-11T17:24:40.081Z,23.20
2018-09-11T17:27:08.286Z,23.10
2018-09-11T17:29:36.534Z,22.90
2018-09-11T17:32:04.707Z,22.90
2018-09-11T17:34:32.859Z,22.80
2018-09-11T17:37:01.194Z,22.60
2018-09-11T17:39:29.372Z,22.50
2018-09-11T17:41:57.605Z,22.30
2018-09-11T17:44:25.807Z,22.00
2018-09-11T17:46:53.942Z,22.00
2018-09-11T17:49:22.087Z,21.90
2018-09-11T17:51:50.326Z,21.80
2018-09-11T17:54:18.487Z,21.60
2018-09-11T17:56:46.680Z,21.50
2018-09-11T17:59:14.822Z,21.40
2018-09-11T18:01:43.124Z,21.30
2018-09-11T18:06:39.335Z,21.10
2018-09-11T18:09:07.995Z,21.10
2018-09-11T18:11:36.216Z,20.80
2018-09-11T18:14:04.454Z,20.90
2018-09-11T18:16:32.644Z,20.70
2018-09-11T18:19:00.826Z,20.50
2018-09-11T18:23:56.902Z,20.40
2018-09-11T18:26:25.141Z,20.40
2018-09-11T18:28:53.331Z,20.20
2018-09-11T18:31:21.510Z,20.10
2018-09-11T18:33:49.688Z,20.00
2018-09-11T18:36:17.831Z,20.00
2018-09-11T18:38:46.002Z,19.90
2018-09-11T18:43:42.678Z,19.70
2018-09-11T18:46:10.977Z,19.50
2018-09-11T18:48:39.314Z,19.50
2018-09-11T18:56:04.372Z,18.60
2018-09-11T18:58:32.626Z,18.40
2018-09-11T19:01:00.768Z,18.20
2018-09-11T19:03:28.923Z,18.10
2018-09-11T19:05:57.111Z,18.00
2018-09-11T19:08:25.286Z,18.00
2018-09-11T19:10:53.443Z,17.90
2018-09-11T19:13:21.649Z,17.80
2018-09-11T19:15:49.857Z,17.80
2018-09-11T19:18:18.015Z,17.70
2018-09-11T19:20:46.166Z,17.60
2018-09-11T19:23:14.370Z,17.60
2018-09-11T19:25:42.655Z,17.50
2018-09-11T19:28:10.806Z,17.50
2018-09-11T19:30:39.098Z,17.50
2018-09-11T19:33:07.249Z,17.40
2018-09-11T19:35:35.377Z,17.30
2018-09-11T19:38:03.504Z,17.30
2018-09-11T19:40:31.677Z,17.20
2018-09-11T19:42:59.913Z,17.20
2018-09-11T19:45:28.105Z,17.20
2018-09-11T19:47:56.317Z,17.20
2018-09-11T19:50:24.507Z,17.20
2018-09-11T19:52:52.697Z,17.20
2018-09-11T19:55:20.889Z,17.10
2018-09-11T19:57:49.029Z,17.10
2018-09-11T20:00:17.230Z,17.20
2018-09-11T20:05:13.389Z,17.00
2018-09-11T20:07:41.553Z,16.80
2018-09-11T20:10:09.727Z,16.70
2018-09-11T20:12:37.888Z,16.70
2018-09-11T20:15:06.574Z,16.70
2018-09-11T20:17:34.897Z,16.50
2018-09-11T20:20:03.104Z,16.40
2018-09-11T20:24:59.169Z,16.20
2018-09-11T20:27:27.317Z,16.20
2018-09-11T20:29:55.474Z,16.10
2018-09-11T20:32:23.646Z,16.10
2018-09-11T20:34:51.793Z,16.10
2018-09-11T20:37:19.985Z,16.20
2018-09-11T20:39:48.108Z,16.20
2018-09-11T20:42:16.274Z,16.10
2018-09-11T20:44:44.478Z,16.00
2018-09-11T20:47:12.662Z,16.00
2018-09-11T20:49:40.892Z,16.00
2018-09-11T20:52:09.079Z,15.90
2018-09-11T20:54:37.291Z,15.80
2018-09-11T20:57:05.425Z,15.90
2018-09-11T20:59:33.598Z,15.80
2018-09-11T21:02:01.766Z,15.90
2018-09-11T21:04:29.990Z,15.90
2018-09-11T21:06:58.118Z,16.00
2018-09-11T21:09:26.250Z,15.90
2018-09-11T21:11:54.414Z,15.90
2018-09-11T21:14:22.566Z,15.90
2018-09-11T21:16:50.714Z,15.90
2018-09-11T21:19:18.910Z,15.90
2018-09-11T21:21:47.042Z,15.90
2018-09-11T21:24:15.207Z,15.90
2018-09-11T21:26:43.413Z,15.90
2018-09-11T21:29:11.773Z,15.90
2018-09-11T21:31:39.990Z,15.90
2018-09-11T21:34:08.195Z,15.90
2018-09-11T21:39:06.424Z,16.00
2018-09-11T21:41:34.596Z,16.00
2018-09-11T21:44:02.753Z,16.00
2018-09-11T21:46:30.963Z,15.80
2018-09-11T21:48:59.178Z,15.60
2018-09-11T21:51:27.373Z,15.60
2018-09-11T21:53:55.511Z,15.60
2018-09-11T21:56:23.658Z,15.70
2018-09-11T21:58:51.792Z,15.70
2018-09-11T22:01:25.527Z,15.80
2018-09-11T22:03:53.749Z,15.90
2018-09-11T22:06:21.921Z,15.90
2018-09-11T22:08:50.074Z,15.90
2018-09-11T22:11:18.245Z,15.80
2018-09-11T22:13:46.897Z,15.70
2018-09-11T22:16:15.033Z,15.60
2018-09-11T22:18:43.175Z,15.70
2018-09-11T22:23:39.490Z,15.70
2018-09-11T22:26:07.737Z,15.70
2018-09-11T22:28:36.216Z,15.60
2018-09-11T22:31:04.425Z,15.60
2018-09-11T22:33:32.557Z,15.40
2018-09-11T22:36:00.697Z,15.40
2018-09-11T22:40:56.903Z,15.40
2018-09-11T22:43:25.042Z,15.40
2018-09-11T22:45:53.263Z,15.40
2018-09-11T22:48:21.426Z,15.40
2018-09-11T22:50:49.566Z,15.30
2018-09-11T22:53:17.759Z,15.30
2018-09-11T22:55:46.096Z,15.30
2018-09-11T22:58:14.263Z,15.30
2018-09-11T23:00:42.407Z,15.30
2018-09-11T23:03:10.542Z,15.30
2018-09-11T23:08:06.626Z,15.20
2018-09-11T23:10:34.918Z,15.10
2018-09-11T23:13:03.072Z,15.10
2018-09-11T23:15:31.206Z,15.00
2018-09-11T23:17:59.427Z,14.90
2018-09-11T23:20:27.566Z,14.90
2018-09-11T23:22:55.773Z,14.80
2018-09-11T23:27:51.849Z,14.80
2018-09-11T23:30:19.998Z,14.80
2018-09-11T23:32:48.157Z,14.80
2018-09-11T23:35:16.310Z,14.60
2018-09-11T23:40:12.379Z,14.40
2018-09-11T23:42:40.522Z,14.40
2018-09-11T23:45:08.654Z,14.40
2018-09-11T23:47:36.818Z,14.40
2018-09-11T23:50:05.206Z,14.50
2018-09-11T23:52:33.422Z,14.50
2018-09-11T23:55:01.557Z,14.60
2018-09-11T23:57:29.699Z,14.60
2018-09-11T23:59:57.845Z,14.60
